sensor_id;sensor_type;location;lat;lon;timestamp;P1;durP1;ratioP1;P2;durP2;ratioP2
44832;SDS011;30569;51.252;9.830;2023-04-06T00:00:55;11.83;;;8.20;;
44832;SDS011;30569;51.252;9.830;2023-04-06T00:03:21;11.33;;;7.47;;
44832;SDS011;30569;51.252;9.830;2023-04-06T00:05:47;9.93;;;6.83;;
44832;SDS011;30569;51.252;9.830;2023-04-06T00:08:13;10.80;;;6.63;;
44832;SDS011;30569;51.252;9.830;2023-04-06T00:10:39;9.90;;;6.63;;
44832;SDS011;30569;51.252;9.830;2023-04-06T00:13:04;10.63;;;6.60;;
44832;SDS011;30569;51.252;9.830;2023-04-06T00:15:31;10.07;;;6.93;;
44832;SDS011;30569;51.252;9.830;2023-04-06T00:17:56;9.83;;;6.37;;
44832;SDS011;30569;51.252;9.830;2023-04-06T00:20:22;12.00;;;7.03;;
44832;SDS011;30569;51.252;9.830;2023-04-06T00:22:48;10.07;;;7.07;;
44832;SDS011;30569;51.252;9.830;2023-04-06T00:25:13;13.83;;;8.13;;
44832;SDS011;30569;51.252;9.830;2023-04-06T00:27:40;10.97;;;7.33;;
44832;SDS011;30569;51.252;9.830;2023-04-06T00:30:06;9.30;;;6.80;;
44832;SDS011;30569;51.252;9.830;2023-04-06T00:32:33;9.90;;;7.47;;
44832;SDS011;30569;51.252;9.830;2023-04-06T00:34:59;11.23;;;7.20;;
44832;SDS011;30569;51.252;9.830;2023-04-06T00:37:26;11.83;;;6.97;;
44832;SDS011;30569;51.252;9.830;2023-04-06T00:39:52;10.00;;;6.97;;
44832;SDS011;30569;51.252;9.830;2023-04-06T00:42:17;10.70;;;6.20;;
44832;SDS011;30569;51.252;9.830;2023-04-06T00:44:50;12.30;;;6.83;;
44832;SDS011;30569;51.252;9.830;2023-04-06T00:47:25;11.00;;;6.53;;
44832;SDS011;30569;51.252;9.830;2023-04-06T00:49:51;14.07;;;6.93;;
44832;SDS011;30569;51.252;9.830;2023-04-06T00:52:17;11.73;;;6.80;;
44832;SDS011;30569;51.252;9.830;2023-04-06T00:54:43;9.33;;;6.43;;
44832;SDS011;30569;51.252;9.830;2023-04-06T00:57:09;14.63;;;7.27;;
44832;SDS011;30569;51.252;9.830;2023-04-06T00:59:38;10.90;;;6.90;;
44832;SDS011;30569;51.252;9.830;2023-04-06T01:02:04;15.40;;;7.40;;
44832;SDS011;30569;51.252;9.830;2023-04-06T01:04:30;9.90;;;6.70;;
44832;SDS011;30569;51.252;9.830;2023-04-06T01:06:57;10.90;;;7.37;;
44832;SDS011;30569;51.252;9.830;2023-04-06T01:09:22;10.33;;;7.17;;
44832;SDS011;30569;51.252;9.830;2023-04-06T01:11:48;10.80;;;6.93;;
44832;SDS011;30569;51.252;9.830;2023-04-06T01:14:14;10.93;;;7.07;;
44832;SDS011;30569;51.252;9.830;2023-04-06T01:16:41;9.90;;;6.57;;
44832;SDS011;30569;51.252;9.830;2023-04-06T01:19:10;12.27;;;7.10;;
44832;SDS011;30569;51.252;9.830;2023-04-06T01:21:37;10.47;;;7.13;;
44832;SDS011;30569;51.252;9.830;2023-04-06T01:24:03;11.30;;;6.77;;
44832;SDS011;30569;51.252;9.830;2023-04-06T01:26:30;11.47;;;7.03;;
44832;SDS011;30569;51.252;9.830;2023-04-06T01:28:56;11.03;;;7.13;;
44832;SDS011;30569;51.252;9.830;2023-04-06T01:31:21;13.23;;;7.00;;
44832;SDS011;30569;51.252;9.830;2023-04-06T01:33:48;10.23;;;6.87;;
44832;SDS011;30569;51.252;9.830;2023-04-06T01:36:14;9.73;;;6.93;;
44832;SDS011;30569;51.252;9.830;2023-04-06T01:38:40;12.43;;;7.33;;
44832;SDS011;30569;51.252;9.830;2023-04-06T01:41:06;10.17;;;6.87;;
44832;SDS011;30569;51.252;9.830;2023-04-06T01:43:32;11.73;;;6.87;;
44832;SDS011;30569;51.252;9.830;2023-04-06T01:45:58;9.37;;;6.20;;
44832;SDS011;30569;51.252;9.830;2023-04-06T01:48:23;11.87;;;7.03;;
44832;SDS011;30569;51.252;9.830;2023-04-06T01:50:49;10.43;;;7.13;;
44832;SDS011;30569;51.252;9.830;2023-04-06T01:53:15;11.23;;;6.87;;
44832;SDS011;30569;51.252;9.830;2023-04-06T01:55:41;11.17;;;7.97;;
44832;SDS011;30569;51.252;9.830;2023-04-06T01:58:06;12.20;;;6.97;;
44832;SDS011;30569;51.252;9.830;2023-04-06T02:00:32;11.13;;;7.00;;
44832;SDS011;30569;51.252;9.830;2023-04-06T02:02:58;11.50;;;6.70;;
44832;SDS011;30569;51.252;9.830;2023-04-06T02:05:24;11.40;;;7.13;;
44832;SDS011;30569;51.252;9.830;2023-04-06T02:07:50;10.70;;;6.73;;
44832;SDS011;30569;51.252;9.830;2023-04-06T02:10:16;12.67;;;7.80;;
44832;SDS011;30569;51.252;9.830;2023-04-06T02:12:42;11.63;;;7.63;;
44832;SDS011;30569;51.252;9.830;2023-04-06T02:15:08;11.27;;;6.97;;
44832;SDS011;30569;51.252;9.830;2023-04-06T02:17:34;13.07;;;7.27;;
44832;SDS011;30569;51.252;9.830;2023-04-06T02:20:00;12.67;;;7.57;;
44832;SDS011;30569;51.252;9.830;2023-04-06T02:22:25;12.97;;;7.10;;
44832;SDS011;30569;51.252;9.830;2023-04-06T02:24:51;11.97;;;6.97;;
44832;SDS011;30569;51.252;9.830;2023-04-06T02:27:16;11.27;;;7.17;;
44832;SDS011;30569;51.252;9.830;2023-04-06T02:29:42;11.77;;;7.43;;
44832;SDS011;30569;51.252;9.830;2023-04-06T02:32:07;10.47;;;7.43;;
44832;SDS011;30569;51.252;9.830;2023-04-06T02:34:33;9.73;;;6.53;;
44832;SDS011;30569;51.252;9.830;2023-04-06T02:36:58;12.90;;;7.13;;
44832;SDS011;30569;51.252;9.830;2023-04-06T02:39:24;15.67;;;8.20;;
44832;SDS011;30569;51.252;9.830;2023-04-06T02:41:49;13.10;;;8.00;;
44832;SDS011;30569;51.252;9.830;2023-04-06T02:44:15;18.87;;;7.93;;
44832;SDS011;30569;51.252;9.830;2023-04-06T02:46:41;12.57;;;7.80;;
44832;SDS011;30569;51.252;9.830;2023-04-06T02:49:07;11.77;;;7.80;;
44832;SDS011;30569;51.252;9.830;2023-04-06T02:51:33;12.67;;;7.40;;
44832;SDS011;30569;51.252;9.830;2023-04-06T02:53:58;10.77;;;7.43;;
44832;SDS011;30569;51.252;9.830;2023-04-06T02:56:24;10.80;;;7.57;;
44832;SDS011;30569;51.252;9.830;2023-04-06T02:58:49;10.77;;;7.23;;
44832;SDS011;30569;51.252;9.830;2023-04-06T03:01:15;14.27;;;8.10;;
44832;SDS011;30569;51.252;9.830;2023-04-06T03:03:41;13.27;;;7.37;;
44832;SDS011;30569;51.252;9.830;2023-04-06T03:06:06;11.70;;;7.63;;
44832;SDS011;30569;51.252;9.830;2023-04-06T03:08:32;13.67;;;8.07;;
44832;SDS011;30569;51.252;9.830;2023-04-06T03:10:58;11.83;;;7.47;;
44832;SDS011;30569;51.252;9.830;2023-04-06T03:13:23;12.23;;;7.80;;
44832;SDS011;30569;51.252;9.830;2023-04-06T03:15:49;12.10;;;7.70;;
44832;SDS011;30569;51.252;9.830;2023-04-06T03:18:15;12.33;;;7.10;;
44832;SDS011;30569;51.252;9.830;2023-04-06T03:20:40;12.03;;;7.97;;
44832;SDS011;30569;51.252;9.830;2023-04-06T03:23:07;11.93;;;7.83;;
44832;SDS011;30569;51.252;9.830;2023-04-06T03:25:32;12.67;;;7.53;;
44832;SDS011;30569;51.252;9.830;2023-04-06T03:27:58;13.50;;;7.73;;
44832;SDS011;30569;51.252;9.830;2023-04-06T03:30:23;14.83;;;8.63;;
44832;SDS011;30569;51.252;9.830;2023-04-06T03:32:49;11.37;;;8.07;;
44832;SDS011;30569;51.252;9.830;2023-04-06T03:35:15;13.17;;;9.80;;
44832;SDS011;30569;51.252;9.830;2023-04-06T03:37:41;12.07;;;7.40;;
44832;SDS011;30569;51.252;9.830;2023-04-06T03:40:06;11.30;;;8.00;;
44832;SDS011;30569;51.252;9.830;2023-04-06T03:42:32;12.07;;;7.80;;
44832;SDS011;30569;51.252;9.830;2023-04-06T03:44:58;11.70;;;7.93;;
44832;SDS011;30569;51.252;9.830;2023-04-06T03:47:24;14.60;;;8.13;;
44832;SDS011;30569;51.252;9.830;2023-04-06T03:49:49;15.70;;;7.80;;
44832;SDS011;30569;51.252;9.830;2023-04-06T03:52:15;11.20;;;7.90;;
44832;SDS011;30569;51.252;9.830;2023-04-06T03:54:41;12.10;;;8.43;;
44832;SDS011;30569;51.252;9.830;2023-04-06T03:57:07;14.60;;;7.87;;
44832;SDS011;30569;51.252;9.830;2023-04-06T03:59:32;12.43;;;8.53;;
44832;SDS011;30569;51.252;9.830;2023-04-06T04:01:59;11.87;;;8.17;;
44832;SDS011;30569;51.252;9.830;2023-04-06T04:04:25;13.60;;;7.70;;
44832;SDS011;30569;51.252;9.830;2023-04-06T04:06:50;12.93;;;7.93;;
44832;SDS011;30569;51.252;9.830;2023-04-06T04:09:16;14.50;;;8.47;;
44832;SDS011;30569;51.252;9.830;2023-04-06T04:11:41;13.33;;;7.70;;
44832;SDS011;30569;51.252;9.830;2023-04-06T04:14:07;12.73;;;7.93;;
44832;SDS011;30569;51.252;9.830;2023-04-06T04:16:32;12.70;;;8.23;;
44832;SDS011;30569;51.252;9.830;2023-04-06T04:18:58;12.40;;;8.03;;
44832;SDS011;30569;51.252;9.830;2023-04-06T04:21:23;13.37;;;7.87;;
44832;SDS011;30569;51.252;9.830;2023-04-06T04:23:50;12.70;;;8.40;;
44832;SDS011;30569;51.252;9.830;2023-04-06T04:26:17;14.33;;;7.87;;
44832;SDS011;30569;51.252;9.830;2023-04-06T04:28:43;14.50;;;7.87;;
44832;SDS011;30569;51.252;9.830;2023-04-06T04:31:08;12.67;;;7.90;;
44832;SDS011;30569;51.252;9.830;2023-04-06T04:33:34;11.50;;;7.80;;
44832;SDS011;30569;51.252;9.830;2023-04-06T04:36:00;13.20;;;8.10;;
44832;SDS011;30569;51.252;9.830;2023-04-06T04:38:25;12.07;;;7.33;;
44832;SDS011;30569;51.252;9.830;2023-04-06T04:40:51;12.87;;;8.20;;
44832;SDS011;30569;51.252;9.830;2023-04-06T04:43:16;13.30;;;8.33;;
44832;SDS011;30569;51.252;9.830;2023-04-06T04:45:42;15.90;;;8.03;;
44832;SDS011;30569;51.252;9.830;2023-04-06T04:48:07;12.27;;;8.07;;
44832;SDS011;30569;51.252;9.830;2023-04-06T04:50:33;12.17;;;8.07;;
44832;SDS011;30569;51.252;9.830;2023-04-06T04:52:59;12.93;;;7.53;;
44832;SDS011;30569;51.252;9.830;2023-04-06T04:55:25;10.57;;;7.30;;
44832;SDS011;30569;51.252;9.830;2023-04-06T04:57:51;16.30;;;8.53;;
44832;SDS011;30569;51.252;9.830;2023-04-06T05:00:16;12.83;;;8.03;;
44832;SDS011;30569;51.252;9.830;2023-04-06T05:02:42;14.83;;;8.90;;
44832;SDS011;30569;51.252;9.830;2023-04-06T05:05:08;13.63;;;8.57;;
44832;SDS011;30569;51.252;9.830;2023-04-06T05:07:33;14.57;;;8.47;;
44832;SDS011;30569;51.252;9.830;2023-04-06T05:09:59;14.73;;;8.33;;
44832;SDS011;30569;51.252;9.830;2023-04-06T05:12:26;14.50;;;8.70;;
44832;SDS011;30569;51.252;9.830;2023-04-06T05:14:52;14.57;;;9.20;;
44832;SDS011;30569;51.252;9.830;2023-04-06T05:17:19;14.73;;;8.73;;
44832;SDS011;30569;51.252;9.830;2023-04-06T05:19:44;14.53;;;8.47;;
44832;SDS011;30569;51.252;9.830;2023-04-06T05:22:10;15.57;;;8.10;;
44832;SDS011;30569;51.252;9.830;2023-04-06T05:24:36;13.07;;;8.73;;
44832;SDS011;30569;51.252;9.830;2023-04-06T05:27:01;13.13;;;8.13;;
44832;SDS011;30569;51.252;9.830;2023-04-06T05:29:27;13.27;;;8.60;;
44832;SDS011;30569;51.252;9.830;2023-04-06T05:31:53;13.20;;;8.17;;
44832;SDS011;30569;51.252;9.830;2023-04-06T05:34:20;16.10;;;9.50;;
44832;SDS011;30569;51.252;9.830;2023-04-06T05:36:45;12.87;;;8.43;;
44832;SDS011;30569;51.252;9.830;2023-04-06T05:39:11;14.20;;;9.13;;
44832;SDS011;30569;51.252;9.830;2023-04-06T05:41:37;14.57;;;9.13;;
44832;SDS011;30569;51.252;9.830;2023-04-06T05:44:03;15.17;;;9.03;;
44832;SDS011;30569;51.252;9.830;2023-04-06T05:46:28;14.13;;;8.77;;
44832;SDS011;30569;51.252;9.830;2023-04-06T05:48:54;12.40;;;7.80;;
44832;SDS011;30569;51.252;9.830;2023-04-06T05:51:20;14.73;;;9.10;;
44832;SDS011;30569;51.252;9.830;2023-04-06T05:53:46;18.20;;;9.77;;
44832;SDS011;30569;51.252;9.830;2023-04-06T05:56:12;14.80;;;9.67;;
44832;SDS011;30569;51.252;9.830;2023-04-06T05:58:37;13.80;;;9.10;;
44832;SDS011;30569;51.252;9.830;2023-04-06T06:01:04;15.20;;;9.50;;
44832;SDS011;30569;51.252;9.830;2023-04-06T06:03:30;16.87;;;10.27;;
44832;SDS011;30569;51.252;9.830;2023-04-06T06:06:00;16.43;;;9.77;;
44832;SDS011;30569;51.252;9.830;2023-04-06T06:08:26;15.67;;;9.10;;
44832;SDS011;30569;51.252;9.830;2023-04-06T06:10:52;15.90;;;9.97;;
44832;SDS011;30569;51.252;9.830;2023-04-06T06:13:18;15.00;;;10.10;;
44832;SDS011;30569;51.252;9.830;2023-04-06T06:15:44;13.87;;;8.27;;
44832;SDS011;30569;51.252;9.830;2023-04-06T06:18:10;16.47;;;10.33;;
44832;SDS011;30569;51.252;9.830;2023-04-06T06:20:36;14.77;;;9.63;;
44832;SDS011;30569;51.252;9.830;2023-04-06T06:23:02;16.47;;;9.33;;
44832;SDS011;30569;51.252;9.830;2023-04-06T06:25:28;13.90;;;8.97;;
44832;SDS011;30569;51.252;9.830;2023-04-06T06:27:55;16.80;;;9.57;;
44832;SDS011;30569;51.252;9.830;2023-04-06T06:30:21;14.03;;;8.80;;
44832;SDS011;30569;51.252;9.830;2023-04-06T06:32:47;17.43;;;9.57;;
44832;SDS011;30569;51.252;9.830;2023-04-06T06:35:13;14.40;;;9.50;;
44832;SDS011;30569;51.252;9.830;2023-04-06T06:37:39;13.83;;;8.67;;
44832;SDS011;30569;51.252;9.830;2023-04-06T06:40:05;18.60;;;8.97;;
44832;SDS011;30569;51.252;9.830;2023-04-06T06:42:31;13.97;;;8.73;;
44832;SDS011;30569;51.252;9.830;2023-04-06T06:44:56;14.20;;;7.93;;
44832;SDS011;30569;51.252;9.830;2023-04-06T06:47:22;17.53;;;7.93;;
44832;SDS011;30569;51.252;9.830;2023-04-06T06:49:48;14.37;;;8.30;;
44832;SDS011;30569;51.252;9.830;2023-04-06T06:52:14;14.47;;;7.63;;
44832;SDS011;30569;51.252;9.830;2023-04-06T06:54:40;15.83;;;8.00;;
44832;SDS011;30569;51.252;9.830;2023-04-06T06:57:05;13.97;;;7.30;;
44832;SDS011;30569;51.252;9.830;2023-04-06T06:59:34;14.13;;;7.83;;
44832;SDS011;30569;51.252;9.830;2023-04-06T07:02:00;13.40;;;7.27;;
44832;SDS011;30569;51.252;9.830;2023-04-06T07:04:26;12.03;;;6.83;;
44832;SDS011;30569;51.252;9.830;2023-04-06T07:06:52;15.13;;;7.80;;
44832;SDS011;30569;51.252;9.830;2023-04-06T07:09:17;15.07;;;6.90;;
44832;SDS011;30569;51.252;9.830;2023-04-06T07:11:43;11.97;;;6.90;;
44832;SDS011;30569;51.252;9.830;2023-04-06T07:14:09;14.13;;;6.63;;
44832;SDS011;30569;51.252;9.830;2023-04-06T07:16:36;13.17;;;7.43;;
44832;SDS011;30569;51.252;9.830;2023-04-06T07:19:02;12.90;;;6.83;;
44832;SDS011;30569;51.252;9.830;2023-04-06T07:21:28;11.63;;;6.67;;
44832;SDS011;30569;51.252;9.830;2023-04-06T07:23:53;11.83;;;6.83;;
44832;SDS011;30569;51.252;9.830;2023-04-06T07:26:19;12.17;;;7.27;;
44832;SDS011;30569;51.252;9.830;2023-04-06T07:28:45;11.83;;;7.20;;
44832;SDS011;30569;51.252;9.830;2023-04-06T07:31:11;10.73;;;6.20;;
44832;SDS011;30569;51.252;9.830;2023-04-06T07:33:37;14.53;;;6.63;;
44832;SDS011;30569;51.252;9.830;2023-04-06T07:36:03;12.53;;;7.77;;
44832;SDS011;30569;51.252;9.830;2023-04-06T07:38:29;12.27;;;7.17;;
44832;SDS011;30569;51.252;9.830;2023-04-06T07:40:56;14.30;;;7.07;;
44832;SDS011;30569;51.252;9.830;2023-04-06T07:43:22;15.37;;;7.90;;
44832;SDS011;30569;51.252;9.830;2023-04-06T07:45:48;11.20;;;6.93;;
44832;SDS011;30569;51.252;9.830;2023-04-06T07:48:13;13.47;;;6.93;;
44832;SDS011;30569;51.252;9.830;2023-04-06T07:50:39;10.60;;;6.37;;
44832;SDS011;30569;51.252;9.830;2023-04-06T07:53:05;13.87;;;6.90;;
44832;SDS011;30569;51.252;9.830;2023-04-06T07:55:31;12.67;;;6.43;;
44832;SDS011;30569;51.252;9.830;2023-04-06T07:57:57;12.10;;;6.30;;
44832;SDS011;30569;51.252;9.830;2023-04-06T08:00:23;10.67;;;6.40;;
44832;SDS011;30569;51.252;9.830;2023-04-06T08:02:49;10.37;;;7.00;;
44832;SDS011;30569;51.252;9.830;2023-04-06T08:05:14;10.50;;;6.15;;
44832;SDS011;30569;51.252;9.830;2023-04-06T08:07:40;10.40;;;6.25;;
44832;SDS011;30569;51.252;9.830;2023-04-06T08:10:06;10.82;;;6.38;;
44832;SDS011;30569;51.252;9.830;2023-04-06T08:12:32;12.00;;;6.38;;
44832;SDS011;30569;51.252;9.830;2023-04-06T08:14:59;11.35;;;5.72;;
44832;SDS011;30569;51.252;9.830;2023-04-06T08:17:25;11.18;;;6.38;;
44832;SDS011;30569;51.252;9.830;2023-04-06T08:19:55;13.30;;;6.40;;
44832;SDS011;30569;51.252;9.830;2023-04-06T08:22:20;10.48;;;6.18;;
44832;SDS011;30569;51.252;9.830;2023-04-06T08:24:46;11.80;;;6.68;;
44832;SDS011;30569;51.252;9.830;2023-04-06T08:27:12;9.82;;;6.07;;
44832;SDS011;30569;51.252;9.830;2023-04-06T08:29:39;10.40;;;5.72;;
44832;SDS011;30569;51.252;9.830;2023-04-06T08:32:06;10.20;;;5.53;;
44832;SDS011;30569;51.252;9.830;2023-04-06T08:34:34;10.00;;;5.95;;
44832;SDS011;30569;51.252;9.830;2023-04-06T08:37:00;11.75;;;6.32;;
44832;SDS011;30569;51.252;9.830;2023-04-06T08:39:26;10.48;;;6.13;;
44832;SDS011;30569;51.252;9.830;2023-04-06T08:41:52;10.00;;;6.00;;
44832;SDS011;30569;51.252;9.830;2023-04-06T08:44:21;10.30;;;6.35;;
44832;SDS011;30569;51.252;9.830;2023-04-06T08:46:47;12.80;;;5.97;;
44832;SDS011;30569;51.252;9.830;2023-04-06T08:49:13;8.02;;;5.85;;
44832;SDS011;30569;51.252;9.830;2023-04-06T08:51:40;10.45;;;7.35;;
44832;SDS011;30569;51.252;9.830;2023-04-06T08:54:07;10.55;;;6.20;;
44832;SDS011;30569;51.252;9.830;2023-04-06T08:56:33;9.45;;;6.25;;
44832;SDS011;30569;51.252;9.830;2023-04-06T08:59:03;12.45;;;6.30;;
44832;SDS011;30569;51.252;9.830;2023-04-06T09:01:30;9.02;;;6.03;;
44832;SDS011;30569;51.252;9.830;2023-04-06T09:03:58;10.13;;;6.18;;
44832;SDS011;30569;51.252;9.830;2023-04-06T09:06:30;11.45;;;5.78;;
44832;SDS011;30569;51.252;9.830;2023-04-06T09:08:56;8.45;;;5.28;;
44832;SDS011;30569;51.252;9.830;2023-04-06T09:11:22;8.20;;;5.50;;
44832;SDS011;30569;51.252;9.830;2023-04-06T09:13:49;8.70;;;5.50;;
44832;SDS011;30569;51.252;9.830;2023-04-06T09:16:19;10.75;;;5.88;;
44832;SDS011;30569;51.252;9.830;2023-04-06T09:18:45;8.20;;;5.55;;
44832;SDS011;30569;51.252;9.830;2023-04-06T09:21:12;9.30;;;5.40;;
44832;SDS011;30569;51.252;9.830;2023-04-06T09:23:41;10.73;;;5.43;;
44832;SDS011;30569;51.252;9.830;2023-04-06T09:31:15;8.25;;;5.13;;
44832;SDS011;30569;51.252;9.830;2023-04-06T09:33:51;9.52;;;5.70;;
44832;SDS011;30569;51.252;9.830;2023-04-06T09:36:18;10.07;;;5.97;;
44832;SDS011;30569;51.252;9.830;2023-04-06T09:38:54;9.38;;;5.50;;
44832;SDS011;30569;51.252;9.830;2023-04-06T09:41:24;12.60;;;5.88;;
44832;SDS011;30569;51.252;9.830;2023-04-06T09:43:52;9.43;;;5.88;;
44832;SDS011;30569;51.252;9.830;2023-04-06T09:46:27;10.60;;;5.43;;
44832;SDS011;30569;51.252;9.830;2023-04-06T09:48:53;8.25;;;5.32;;
44832;SDS011;30569;51.252;9.830;2023-04-06T09:51:19;8.38;;;5.65;;
44832;SDS011;30569;51.252;9.830;2023-04-06T09:53:45;9.48;;;6.35;;
44832;SDS011;30569;51.252;9.830;2023-04-06T09:56:17;14.80;;;6.15;;
44832;SDS011;30569;51.252;9.830;2023-04-06T09:58:48;10.23;;;6.00;;
44832;SDS011;30569;51.252;9.830;2023-04-06T10:01:18;9.18;;;5.85;;
44832;SDS011;30569;51.252;9.830;2023-04-06T10:03:55;12.73;;;6.35;;
44832;SDS011;30569;51.252;9.830;2023-04-06T10:06:30;10.77;;;6.05;;
44832;SDS011;30569;51.252;9.830;2023-04-06T10:09:01;9.75;;;6.15;;
44832;SDS011;30569;51.252;9.830;2023-04-06T10:11:29;8.30;;;5.57;;
44832;SDS011;30569;51.252;9.830;2023-04-06T10:13:56;9.43;;;6.00;;
44832;SDS011;30569;51.252;9.830;2023-04-06T10:16:22;9.32;;;6.00;;
44832;SDS011;30569;51.252;9.830;2023-04-06T10:18:51;10.18;;;6.00;;
44832;SDS011;30569;51.252;9.830;2023-04-06T10:21:21;10.40;;;6.15;;
44832;SDS011;30569;51.252;9.830;2023-04-06T10:23:51;12.60;;;6.72;;
44832;SDS011;30569;51.252;9.830;2023-04-06T10:26:20;11.02;;;6.95;;
44832;SDS011;30569;51.252;9.830;2023-04-06T10:28:47;12.32;;;8.00;;
44832;SDS011;30569;51.252;9.830;2023-04-06T10:31:13;10.57;;;6.57;;
44832;SDS011;30569;51.252;9.830;2023-04-06T10:33:39;10.55;;;6.93;;
44832;SDS011;30569;51.252;9.830;2023-04-06T10:36:09;10.20;;;5.18;;
44832;SDS011;30569;51.252;9.830;2023-04-06T10:38:47;9.18;;;5.80;;
44832;SDS011;30569;51.252;9.830;2023-04-06T10:41:18;12.55;;;6.40;;
44832;SDS011;30569;51.252;9.830;2023-04-06T10:43:44;11.25;;;7.13;;
44832;SDS011;30569;51.252;9.830;2023-04-06T10:46:09;13.30;;;7.53;;
44832;SDS011;30569;51.252;9.830;2023-04-06T10:48:43;14.23;;;7.05;;
44832;SDS011;30569;51.252;9.830;2023-04-06T10:51:15;12.15;;;7.18;;
44832;SDS011;30569;51.252;9.830;2023-04-06T10:53:42;12.05;;;6.70;;
44832;SDS011;30569;51.252;9.830;2023-04-06T10:56:13;13.48;;;7.40;;
44832;SDS011;30569;51.252;9.830;2023-04-06T11:01:12;12.77;;;7.82;;
44832;SDS011;30569;51.252;9.830;2023-04-06T11:03:42;12.23;;;7.63;;
44832;SDS011;30569;51.252;9.830;2023-04-06T11:06:21;12.93;;;7.80;;
44832;SDS011;30569;51.252;9.830;2023-04-06T11:08:49;11.10;;;7.22;;
44832;SDS011;30569;51.252;9.830;2023-04-06T11:11:16;10.75;;;6.88;;
44832;SDS011;30569;51.252;9.830;2023-04-06T11:13:44;10.68;;;6.95;;
44832;SDS011;30569;51.252;9.830;2023-04-06T11:16:12;11.68;;;7.53;;
44832;SDS011;30569;51.252;9.830;2023-04-06T11:18:49;12.13;;;7.47;;
44832;SDS011;30569;51.252;9.830;2023-04-06T11:23:41;12.82;;;7.88;;
44832;SDS011;30569;51.252;9.830;2023-04-06T11:26:11;13.65;;;7.70;;
44832;SDS011;30569;51.252;9.830;2023-04-06T11:28:38;14.30;;;7.72;;
44832;SDS011;30569;51.252;9.830;2023-04-06T11:31:05;12.23;;;7.32;;
44832;SDS011;30569;51.252;9.830;2023-04-06T11:33:34;12.93;;;6.57;;
44832;SDS011;30569;51.252;9.830;2023-04-06T11:36:01;11.57;;;6.97;;
44832;SDS011;30569;51.252;9.830;2023-04-06T11:38:27;10.73;;;6.68;;
44832;SDS011;30569;51.252;9.830;2023-04-06T11:40:53;12.70;;;7.32;;
44832;SDS011;30569;51.252;9.830;2023-04-06T11:43:25;12.90;;;7.15;;
44832;SDS011;30569;51.252;9.830;2023-04-06T11:45:58;12.18;;;6.93;;
44832;SDS011;30569;51.252;9.830;2023-04-06T11:48:28;9.30;;;6.28;;
44832;SDS011;30569;51.252;9.830;2023-04-06T11:50:57;12.48;;;6.97;;
44832;SDS011;30569;51.252;9.830;2023-04-06T11:53:26;11.25;;;7.45;;
44832;SDS011;30569;51.252;9.830;2023-04-06T11:55:54;15.15;;;6.72;;
44832;SDS011;30569;51.252;9.830;2023-04-06T11:58:20;11.23;;;6.43;;
44832;SDS011;30569;51.252;9.830;2023-04-06T12:00:46;11.05;;;6.60;;
44832;SDS011;30569;51.252;9.830;2023-04-06T12:03:12;11.38;;;6.50;;
44832;SDS011;30569;51.252;9.830;2023-04-06T12:05:38;9.88;;;6.60;;
44832;SDS011;30569;51.252;9.830;2023-04-06T12:08:03;11.25;;;7.10;;
44832;SDS011;30569;51.252;9.830;2023-04-06T12:10:29;11.38;;;7.68;;
44832;SDS011;30569;51.252;9.830;2023-04-06T12:12:55;11.77;;;7.38;;
44832;SDS011;30569;51.252;9.830;2023-04-06T12:15:20;10.30;;;6.40;;
44832;SDS011;30569;51.252;9.830;2023-04-06T12:17:47;12.38;;;7.15;;
44832;SDS011;30569;51.252;9.830;2023-04-06T12:20:12;10.63;;;6.43;;
44832;SDS011;30569;51.252;9.830;2023-04-06T12:22:38;12.55;;;7.05;;
44832;SDS011;30569;51.252;9.830;2023-04-06T12:25:04;9.63;;;6.03;;
44832;SDS011;30569;51.252;9.830;2023-04-06T12:27:31;10.75;;;6.68;;
44832;SDS011;30569;51.252;9.830;2023-04-06T12:29:57;11.77;;;7.28;;
44832;SDS011;30569;51.252;9.830;2023-04-06T12:32:23;12.65;;;7.32;;
44832;SDS011;30569;51.252;9.830;2023-04-06T12:34:48;12.32;;;6.80;;
44832;SDS011;30569;51.252;9.830;2023-04-06T12:37:14;12.27;;;6.68;;
44832;SDS011;30569;51.252;9.830;2023-04-06T12:39:40;10.57;;;6.78;;
44832;SDS011;30569;51.252;9.830;2023-04-06T12:42:05;11.40;;;7.18;;
44832;SDS011;30569;51.252;9.830;2023-04-06T12:44:31;10.90;;;7.20;;
44832;SDS011;30569;51.252;9.830;2023-04-06T12:46:57;10.63;;;6.75;;
44832;SDS011;30569;51.252;9.830;2023-04-06T12:49:23;13.90;;;7.45;;
44832;SDS011;30569;51.252;9.830;2023-04-06T12:51:49;10.85;;;6.97;;
44832;SDS011;30569;51.252;9.830;2023-04-06T12:54:15;8.93;;;6.13;;
44832;SDS011;30569;51.252;9.830;2023-04-06T12:56:41;13.27;;;7.22;;
44832;SDS011;30569;51.252;9.830;2023-04-06T12:59:07;11.93;;;6.75;;
44832;SDS011;30569;51.252;9.830;2023-04-06T13:01:33;11.02;;;7.03;;
44832;SDS011;30569;51.252;9.830;2023-04-06T13:03:59;13.05;;;6.40;;
44832;SDS011;30569;51.252;9.830;2023-04-06T13:06:25;12.40;;;6.75;;
44832;SDS011;30569;51.252;9.830;2023-04-06T13:08:54;12.80;;;6.63;;
44832;SDS011;30569;51.252;9.830;2023-04-06T13:11:20;12.30;;;6.78;;
44832;SDS011;30569;51.252;9.830;2023-04-06T13:13:48;11.77;;;7.03;;
44832;SDS011;30569;51.252;9.830;2023-04-06T13:16:14;11.55;;;6.72;;
44832;SDS011;30569;51.252;9.830;2023-04-06T13:18:40;11.00;;;7.10;;
44832;SDS011;30569;51.252;9.830;2023-04-06T13:21:06;9.18;;;5.88;;
44832;SDS011;30569;51.252;9.830;2023-04-06T13:23:32;8.45;;;5.25;;
44832;SDS011;30569;51.252;9.830;2023-04-06T13:26:04;10.02;;;6.07;;
44832;SDS011;30569;51.252;9.830;2023-04-06T13:28:31;12.52;;;6.57;;
44832;SDS011;30569;51.252;9.830;2023-04-06T13:30:58;10.02;;;5.70;;
44832;SDS011;30569;51.252;9.830;2023-04-06T13:33:25;9.18;;;6.03;;
44832;SDS011;30569;51.252;9.830;2023-04-06T13:35:51;12.30;;;6.00;;
44832;SDS011;30569;51.252;9.830;2023-04-06T13:38:17;8.85;;;5.13;;
44832;SDS011;30569;51.252;9.830;2023-04-06T13:40:42;10.40;;;5.30;;
44832;SDS011;30569;51.252;9.830;2023-04-06T13:43:09;7.90;;;5.22;;
44832;SDS011;30569;51.252;9.830;2023-04-06T13:45:34;9.30;;;5.82;;
44832;SDS011;30569;51.252;9.830;2023-04-06T13:48:00;8.60;;;5.10;;
44832;SDS011;30569;51.252;9.830;2023-04-06T13:50:26;11.57;;;5.18;;
44832;SDS011;30569;51.252;9.830;2023-04-06T13:52:52;7.18;;;4.43;;
44832;SDS011;30569;51.252;9.830;2023-04-06T13:55:17;8.57;;;4.68;;
44832;SDS011;30569;51.252;9.830;2023-04-06T13:57:43;11.75;;;5.28;;
44832;SDS011;30569;51.252;9.830;2023-04-06T14:00:09;10.35;;;5.30;;
44832;SDS011;30569;51.252;9.830;2023-04-06T14:02:37;11.07;;;5.32;;
44832;SDS011;30569;51.252;9.830;2023-04-06T14:05:03;10.05;;;5.53;;
44832;SDS011;30569;51.252;9.830;2023-04-06T14:07:29;6.80;;;4.38;;
44832;SDS011;30569;51.252;9.830;2023-04-06T14:09:55;6.55;;;4.20;;
44832;SDS011;30569;51.252;9.830;2023-04-06T14:12:20;10.13;;;4.40;;
44832;SDS011;30569;51.252;9.830;2023-04-06T14:14:46;9.75;;;4.78;;
44832;SDS011;30569;51.252;9.830;2023-04-06T14:17:12;6.85;;;4.40;;
44832;SDS011;30569;51.252;9.830;2023-04-06T14:19:38;6.82;;;4.15;;
44832;SDS011;30569;51.252;9.830;2023-04-06T14:22:03;9.52;;;4.80;;
44832;SDS011;30569;51.252;9.830;2023-04-06T14:24:30;9.65;;;4.68;;
44832;SDS011;30569;51.252;9.830;2023-04-06T14:26:56;9.50;;;4.22;;
44832;SDS011;30569;51.252;9.830;2023-04-06T14:29:21;8.20;;;4.63;;
44832;SDS011;30569;51.252;9.830;2023-04-06T14:31:47;6.82;;;4.55;;
44832;SDS011;30569;51.252;9.830;2023-04-06T14:34:13;10.88;;;4.78;;
44832;SDS011;30569;51.252;9.830;2023-04-06T14:36:41;9.90;;;4.53;;
44832;SDS011;30569;51.252;9.830;2023-04-06T14:39:07;10.77;;;4.68;;
44832;SDS011;30569;51.252;9.830;2023-04-06T14:41:33;8.10;;;4.38;;